Time;durP1;ratioP1;P1;durP2;ratioP2;P2;SDS_P1;SDS_P2;PMS_P1;PMS_P2;Temp;Humidity;BMP_temperature;BMP_pressure;BME280_temperature;BME280_humidity;BME280_pressure;Samples;Min_cycle;Max_cycle;Signal;HPM_P1;HPM_P2
2022/12/16 00:00:01;;;;;;;9.48;7.03;;;;;;;14.10;45.48;91667.59;4934306;28;20040;-90
2022/12/16 00:02:26;;;;;;;11.60;7.03;;;;;;;14.12;44.95;91665.84;4989336;28;20053;-91
2022/12/16 00:04:51;;;;;;;9.93;6.55;;;;;;;14.10;45.20;91668.34;5005806;28;20468;-90
2022/12/16 00:07:17;;;;;;;9.95;5.97;;;;;;;14.12;45.46;91641.38;4984410;28;20046;-90
2022/12/16 00:09:42;;;;;;;9.32;6.10;;;;;;;14.11;45.11;91629.03;4932010;29;20047;-90
2022/12/16 00:12:08;;;;;;;8.48;6.32;;;;;;;14.14;45.33;91619.84;4950525;28;20047;-89
2022/12/16 00:14:33;;;;;;;9.70;6.10;;;;;;;14.07;45.09;91626.66;4960137;28;20034;-90
2022/12/16 00:16:59;;;;;;;9.20;6.05;;;;;;;14.05;45.44;91623.03;4989703;28;20508;-91
2022/12/16 00:19:24;;;;;;;12.10;6.18;;;;;;;14.12;45.30;91613.47;4996915;28;20046;-90
2022/12/16 00:21:49;;;;;;;9.15;6.03;;;;;;;14.08;45.58;91602.94;4973971;28;20264;-90
2022/12/16 00:24:15;;;;;;;8.65;6.05;;;;;;;14.10;45.01;91602.41;4955527;28;20035;-91
2022/12/16 00:26:40;;;;;;;9.55;6.65;;;;;;;14.10;45.36;91614.00;4990294;28;20038;-89
2022/12/16 00:29:06;;;;;;;9.60;5.90;;;;;;;14.13;45.12;91620.38;4988045;28;20051;-90
2022/12/16 00:31:31;;;;;;;9.45;6.25;;;;;;;14.14;45.11;91624.56;4985362;28;20047;-90
2022/12/16 00:33:57;;;;;;;8.43;5.68;;;;;;;14.14;45.21;91624.56;4938713;29;20039;-91
2022/12/16 00:36:22;;;;;;;8.10;5.70;;;;;;;14.12;45.34;91629.78;4939665;28;20417;-89
2022/12/16 00:38:48;;;;;;;8.80;5.78;;;;;;;14.13;45.53;91639.41;4956844;28;20053;-91
2022/12/16 00:41:13;;;;;;;7.32;5.03;;;;;;;14.12;44.92;91638.66;4979541;28;20043;-91
2022/12/16 00:43:38;;;;;;;9.20;6.25;;;;;;;14.06;44.98;91636.06;4937878;28;20039;-92
2022/12/16 00:46:04;;;;;;;8.77;6.15;;;;;;;14.10;45.46;91643.16;4977225;28;20108;-90
2022/12/16 00:48:29;;;;;;;8.70;5.78;;;;;;;14.10;45.43;91645.88;4973184;28;20049;-90
2022/12/16 00:50:55;;;;;;;7.10;5.40;;;;;;;14.13;45.05;91644.81;4968364;28;20486;-90
2022/12/16 00:53:20;;;;;;;7.55;5.88;;;;;;;14.10;45.10;91648.59;4935226;28;20047;-91
2022/12/16 00:55:46;;;;;;;6.38;5.35;;;;;;;14.06;45.16;91654.38;4965172;28;20459;-92
2022/12/16 00:58:12;;;;;;;7.28;4.95;;;;;;;14.12;45.22;91652.25;4957813;28;20039;-91
2022/12/16 01:00:37;;;;;;;8.75;5.40;;;;;;;14.12;45.31;91659.66;4968607;28;20526;-90
2022/12/16 01:03:03;;;;;;;8.02;5.47;;;;;;;14.11;45.41;91650.78;4989214;28;20038;-89
2022/12/16 01:05:28;;;;;;;7.55;5.85;;;;;;;14.08;45.45;91670.84;4985987;28;20043;-90
2022/12/16 01:07:54;;;;;;;7.07;4.95;;;;;;;14.07;45.15;91680.97;4937670;28;20038;-91
2022/12/16 01:10:19;;;;;;;6.53;5.00;;;;;;;14.07;45.24;91683.69;4971835;28;20065;-90
2022/12/16 01:12:44;;;;;;;8.68;5.40;;;;;;;14.07;45.29;91683.00;4953618;28;20059;-90
2022/12/16 01:15:11;;;;;;;8.65;5.25;;;;;;;14.10;45.51;91684.66;4969074;28;20043;-90
2022/12/16 01:17:37;;;;;;;8.65;5.70;;;;;;;14.10;45.15;91686.63;4982639;28;20049;-90
2022/12/16 01:20:03;;;;;;;7.57;5.25;;;;;;;14.06;45.35;91689.69;4944688;28;20039;-91
2022/12/16 01:22:32;;;;;;;7.82;5.00;;;;;;;14.02;45.22;91690.00;4935160;28;20051;-90
2022/12/16 01:24:58;;;;;;;6.65;5.07;;;;;;;14.05;45.31;91691.66;4934557;29;20071;-91
2022/12/16 01:27:23;;;;;;;7.13;5.20;;;;;;;14.03;45.31;91691.47;4938650;28;20050;-90
2022/12/16 01:29:49;;;;;;;5.88;4.85;;;;;;;14.07;45.39;91686.41;4988424;28;20081;-90
2022/12/16 01:32:14;;;;;;;7.60;4.95;;;;;;;14.06;45.27;91692.41;4980189;28;20618;-90
2022/12/16 01:34:40;;;;;;;6.55;4.85;;;;;;;14.05;45.50;91686.22;4988921;28;20042;-90
2022/12/16 01:37:11;;;;;;;6.68;4.40;;;;;;;14.05;45.63;91688.22;4990286;28;20047;-90
2022/12/16 01:39:36;;;;;;;7.53;4.50;;;;;;;14.06;45.21;91684.97;4952655;28;20070;-91
2022/12/16 01:42:02;;;;;;;6.72;4.43;;;;;;;14.07;45.58;91677.56;4960793;28;20504;-90
2022/12/16 01:44:27;;;;;;;8.60;4.93;;;;;;;14.05;45.47;91685.50;4980806;28;20432;-90
2022/12/16 01:46:55;;;;;;;6.25;4.43;;;;;;;14.06;45.05;91679.56;4937127;28;20046;-91
2022/12/16 01:49:39;;;;;;;6.32;4.53;;;;;;;14.07;45.43;91677.56;4955426;28;20494;-90
2022/12/16 01:52:07;;;;;;;7.25;3.97;;;;;;;14.06;45.32;91676.84;4987372;28;20042;-90
2022/12/16 01:54:42;;;;;;;7.03;4.82;;;;;;;14.08;45.04;91670.84;4987821;28;20506;-90
2022/12/16 01:57:16;;;;;;;6.60;4.57;;;;;;;14.13;45.05;91664.56;4958480;28;20043;-90
2022/12/16 01:59:43;;;;;;;6.28;5.00;;;;;;;14.10;45.13;91659.47;4960426;28;20049;-90
2022/12/16 02:02:08;;;;;;;7.28;4.63;;;;;;;14.11;45.38;91655.47;4966028;28;20042;-90
2022/12/16 02:04:33;;;;;;;5.95;4.20;;;;;;;14.08;45.17;91647.13;5004929;28;20061;-90
2022/12/16 02:06:59;;;;;;;6.80;4.28;;;;;;;14.16;45.11;91643.78;4976583;28;20031;-91
2022/12/16 02:09:24;;;;;;;6.18;4.45;;;;;;;14.08;45.18;91640.97;4951711;28;20397;-90
2022/12/16 02:12:17;;;;;;;6.32;4.72;;;;;;;14.11;45.30;91639.19;4952716;28;20046;-89
2022/12/16 02:14:46;;;;;;;4.90;4.03;;;;;;;14.08;45.53;91630.81;4988407;28;20501;-91
2022/12/16 02:17:18;;;;;;;6.68;4.72;;;;;;;14.06;45.37;91632.63;4977466;28;20083;-90
2022/12/16 02:20:02;;;;;;;6.05;4.13;;;;;;;14.10;45.24;91635.00;4962877;28;20039;-90
2022/12/16 02:22:39;;;;;;;6.95;4.45;;;;;;;14.06;44.88;91636.06;4981571;28;20409;-89
2022/12/16 02:25:25;;;;;;;6.82;4.95;;;;;;;14.06;45.07;91640.78;4987833;28;20069;-90
2022/12/16 02:27:51;;;;;;;5.07;3.92;;;;;;;14.10;45.22;91632.28;4988005;28;20412;-90
2022/12/16 02:30:25;;;;;;;6.30;4.47;;;;;;;14.12;45.17;91630.50;4972384;28;20484;-90
2022/12/16 02:32:57;;;;;;;5.55;4.38;;;;;;;14.06;45.20;91636.06;4949215;28;20555;-90
2022/12/16 02:35:39;;;;;;;6.85;4.30;;;;;;;14.13;44.86;91642.09;4933368;28;20060;-90
2022/12/16 02:38:05;;;;;;;5.40;3.88;;;;;;;14.13;45.28;91633.97;4933250;28;20035;-90
2022/12/16 02:40:40;;;;;;;6.22;4.15;;;;;;;14.12;45.03;91635.94;4989171;28;20511;-91
2022/12/16 02:43:18;;;;;;;5.10;3.67;;;;;;;14.15;45.07;91636.88;4976903;28;20093;-90
2022/12/16 02:45:43;;;;;;;5.82;4.13;;;;;;;14.16;45.05;91646.50;4973423;28;20042;-91
2022/12/16 02:48:10;;;;;;;5.68;4.13;;;;;;;14.10;45.11;91638.44;4964658;28;20048;-90
2022/12/16 02:50:41;;;;;;;6.28;3.95;;;;;;;14.10;45.28;91646.59;4949161;28;20122;-90
2022/12/16 02:53:07;;;;;;;6.00;4.00;;;;;;;14.08;45.22;91646.41;4974472;28;20125;-92
2022/12/16 02:55:55;;;;;;;6.07;4.18;;;;;;;14.11;45.24;91655.47;4990588;28;20034;-92
2022/12/16 02:58:32;;;;;;;6.60;4.15;;;;;;;14.13;45.00;91653.72;4971134;28;20042;-90
2022/12/16 03:01:07;;;;;;;5.93;4.15;;;;;;;14.06;45.43;91663.25;4938484;28;20059;-91
2022/12/16 03:03:47;;;;;;;6.32;3.88;;;;;;;14.05;45.20;91664.50;4955396;28;20049;-90
2022/12/16 03:06:13;;;;;;;4.90;3.67;;;;;;;14.03;45.35;91667.00;4989001;28;20042;-90
2022/12/16 03:08:39;;;;;;;5.72;4.20;;;;;;;14.07;45.17;91672.84;4953346;28;20047;-91
2022/12/16 03:11:07;;;;;;;4.80;3.55;;;;;;;14.11;45.23;91682.66;4939465;28;20609;-90
2022/12/16 03:13:36;;;;;;;5.28;3.92;;;;;;;14.13;45.24;91683.59;4921178;29;20050;-89
2022/12/16 03:16:01;;;;;;;4.57;3.83;;;;;;;14.08;44.96;91681.72;4983898;28;20565;-90
2022/12/16 03:18:27;;;;;;;5.13;3.80;;;;;;;14.08;45.23;91689.88;4987101;28;20047;-90
2022/12/16 03:20:54;;;;;;;5.63;3.88;;;;;;;14.05;45.17;91709.97;4939598;28;20050;-90
2022/12/16 03:23:24;;;;;;;4.60;3.40;;;;;;;14.03;45.06;91702.31;4934900;28;20506;-90
2022/12/16 03:25:49;;;;;;;6.07;3.45;;;;;;;14.04;45.19;91708.50;4984027;28;20050;-90
2022/12/16 03:28:22;;;;;;;5.45;3.70;;;;;;;14.08;45.00;91714.31;4970203;28;20043;-89
2022/12/16 03:30:50;;;;;;;4.07;3.30;;;;;;;14.06;45.37;91708.69;4990916;28;20041;-89
2022/12/16 03:33:30;;;;;;;5.05;3.88;;;;;;;14.08;45.17;91715.06;4958256;28;20130;-90
2022/12/16 03:36:01;;;;;;;3.95;3.35;;;;;;;14.10;45.13;91719.22;4974432;28;20492;-90
2022/12/16 03:38:26;;;;;;;5.82;3.58;;;;;;;14.11;45.07;91717.97;5005949;28;20053;-90
2022/12/16 03:40:52;;;;;;;5.63;3.88;;;;;;;14.06;45.17;91716.84;4958484;28;20034;-90
2022/12/16 03:43:17;;;;;;;4.97;3.55;;;;;;;14.10;45.17;91719.97;4970351;28;20057;-91
2022/12/16 03:45:46;;;;;;;5.45;3.20;;;;;;;14.08;45.18;91720.47;4973293;28;20062;-91
2022/12/16 03:48:12;;;;;;;5.13;3.60;;;;;;;14.04;45.26;91714.66;4995623;28;20124;-91
2022/12/16 03:50:38;;;;;;;4.97;3.50;;;;;;;14.10;45.33;91724.66;4974524;28;20038;-90
2022/12/16 03:53:04;;;;;;;4.47;3.55;;;;;;;14.08;45.16;91714.31;4996121;28;20510;-90
2022/12/16 03:55:29;;;;;;;5.45;3.53;;;;;;;14.04;45.47;91727.50;4968895;28;20058;-90
2022/12/16 03:57:56;;;;;;;4.35;3.60;;;;;;;14.06;45.26;91725.72;4965218;28;20121;-91
2022/12/16 04:00:21;;;;;;;5.57;3.60;;;;;;;14.06;45.11;91733.88;4938534;28;20163;-90
2022/12/16 04:02:46;;;;;;;5.47;3.53;;;;;;;14.12;44.83;91724.88;4961031;28;20122;-90
2022/12/16 04:05:12;;;;;;;4.28;3.22;;;;;;;14.14;44.99;91725.81;4989155;28;20027;-90
2022/12/16 04:07:37;;;;;;;4.85;3.47;;;;;;;14.06;45.12;91720.31;4973396;28;20069;-90
2022/12/16 04:10:03;;;;;;;4.00;2.90;;;;;;;14.05;45.07;91720.81;4992929;28;20065;-91
2022/12/16 04:26:13;;;;;;;4.65;3.40;;;;;;;14.11;44.75;91726.13;5003122;28;20045;-90
2022/12/16 04:28:39;;;;;;;4.20;3.10;;;;;;;14.17;44.70;91735.66;5005321;28;20042;-90
2022/12/16 04:31:04;;;;;;;3.10;2.72;;;;;;;14.11;44.78;91726.88;4990677;28;20542;-92
